Ledegem, Belgium
Current Conditions -  °F | °C
As of 7:30 PM on Thursday 27 Nov 2014 (Local Time) from LFQQ Reporting Station
Broken Clouds Broken Clouds  
Wind Chill: 48°   Ceiling: 1000
Heat Index: 48°   Visibility: 6mi
Dew Point: 46°   Wind: 3mph
Humidity: 93%   Direction: 100°E
Pressure: 29.65"   Gusts: NA
Location:  50.86°N, 3.12°E
Report Text: LFQQ 271830Z 10003KT 9999 BKN010 09/08 Q1004 NOSIG
Loading
Personal Weather Stations






























Interactive Weather Map New forecast layout! Learn more

10-Day Weather Forecast

Advertisements
Track Severe Weather on mobile